createdAt,value
2016-09-30T00:00:40.040Z,89.09
2016-09-30T00:01:40.061Z,89.86
2016-09-30T00:02:40.089Z,91.11
2016-09-30T00:03:40.103Z,89.86
2016-09-30T00:04:40.114Z,90.34
2016-09-30T00:05:40.140Z,89.86
2016-09-30T00:06:40.164Z,89.48
2016-09-30T00:07:40.183Z,89.48
2016-09-30T00:08:40.207Z,89.67
2016-09-30T00:09:40.224Z,89.58
2016-09-30T00:10:40.239Z,89.58
2016-09-30T00:11:40.264Z,89.67
2016-09-30T00:12:40.275Z,89.19
2016-09-30T00:13:40.308Z,88.9
2016-09-30T00:14:40.345Z,88.9
2016-09-30T00:15:40.341Z,89.48
2016-09-30T00:16:40.364Z,89.09
2016-09-30T00:17:40.380Z,88.71
2016-09-30T00:18:40.397Z,88.81
2016-09-30T00:19:40.420Z,88.81
2016-09-30T00:20:40.441Z,87.66
2016-09-30T00:21:40.453Z,88.43
2016-09-30T00:22:40.466Z,88.04
2016-09-30T00:23:40.502Z,87.56
2016-09-30T00:24:40.520Z,87.56
2016-09-30T00:25:40.539Z,87.18
2016-09-30T00:26:40.552Z,87.18
2016-09-30T00:27:40.571Z,87.66
2016-09-30T00:28:40.600Z,87.37
2016-09-30T00:29:40.607Z,87.56
2016-09-30T00:30:40.625Z,87.95
2016-09-30T00:31:40.662Z,88.13
2016-09-30T00:32:40.675Z,87.66
2016-09-30T00:33:40.698Z,87.18
2016-09-30T00:34:40.713Z,87.66
2016-09-30T00:35:40.739Z,87.85
2016-09-30T00:36:40.750Z,87.56
2016-09-30T00:37:40.781Z,87.47
2016-09-30T00:38:40.795Z,87.85
2016-09-30T00:39:40.805Z,87.85
2016-09-30T00:40:40.830Z,88.62
2016-09-30T00:41:40.860Z,88.04
2016-09-30T00:42:40.869Z,88.43
2016-09-30T00:43:40.884Z,87.85
2016-09-30T00:44:40.915Z,88.81
2016-09-30T00:45:40.936Z,89
2016-09-30T00:46:40.947Z,89
2016-09-30T00:47:40.963Z,89.38
2016-09-30T00:48:40.997Z,89
2016-09-30T00:49:41.015Z,88.71
2016-09-30T00:50:41.027Z,88.9
2016-09-30T00:51:41.054Z,88.81
2016-09-30T00:52:41.078Z,88.9
2016-09-30T00:53:41.089Z,89.19
2016-09-30T00:54:41.109Z,88.81
2016-09-30T00:55:41.131Z,88.81
2016-09-30T00:56:41.144Z,88.81
2016-09-30T00:57:41.163Z,89
2016-09-30T00:58:41.187Z,88.37
2016-09-30T00:59:41.208Z,88.9
2016-09-30T01:00:41.234Z,89.09
2016-09-30T01:01:41.236Z,89.38
2016-09-30T01:02:41.263Z,89.52
2016-09-30T01:03:41.289Z,88.9
2016-09-30T01:04:41.308Z,89.29
2016-09-30T01:05:41.337Z,89.58
2016-09-30T01:06:41.347Z,90.34
2016-09-30T01:07:41.372Z,90.34
2016-09-30T01:08:41.384Z,89.76
2016-09-30T01:09:41.415Z,90.24
2016-09-30T01:10:41.423Z,89.95
2016-09-30T01:11:41.444Z,89.09
2016-09-30T01:12:41.456Z,90.05
2016-09-30T01:13:41.489Z,90.05
2016-09-30T01:14:41.498Z,89.95
2016-09-30T01:15:41.520Z,89.76
2016-09-30T01:16:41.540Z,90.05
2016-09-30T01:17:41.570Z,90.44
2016-09-30T01:18:41.578Z,90.82
2016-09-30T01:19:41.602Z,91.01
2016-09-30T01:20:41.625Z,90.82
2016-09-30T01:21:41.653Z,90.44
2016-09-30T01:22:41.662Z,89.86
2016-09-30T01:23:41.682Z,90.05
2016-09-30T01:24:41.704Z,90.24
2016-09-30T01:25:41.722Z,89.48
2016-09-30T01:26:41.743Z,89.76
2016-09-30T01:27:41.763Z,89.67
2016-09-30T01:28:41.783Z,89.62
2016-09-30T01:29:41.805Z,89.48
2016-09-30T01:30:41.830Z,89.43
2016-09-30T01:31:41.855Z,89.52
2016-09-30T01:32:41.851Z,89.23
2016-09-30T01:33:41.888Z,89.19
2016-09-30T01:34:41.909Z,89.95
2016-09-30T01:35:41.920Z,90.19
2016-09-30T01:36:41.945Z,90.91
2016-09-30T01:37:41.962Z,90.53
2016-09-30T01:38:41.987Z,90.44
2016-09-30T01:39:41.998Z,90.82
2016-09-30T01:40:42.023Z,90.44
2016-09-30T01:41:42.051Z,90.44
2016-09-30T01:42:42.060Z,90.24
2016-09-30T01:43:42.080Z,90.44
2016-09-30T01:44:42.093Z,90.29
2016-09-30T01:45:42.109Z,89.86
2016-09-30T01:46:42.147Z,90.05
2016-09-30T01:47:42.173Z,90.29
2016-09-30T01:48:42.187Z,90.29
2016-09-30T01:49:42.198Z,90.05
2016-09-30T01:50:42.222Z,90.05
2016-09-30T01:51:42.243Z,90.09
2016-09-30T01:52:42.266Z,89.67
2016-09-30T01:53:42.276Z,90.05
2016-09-30T01:54:42.307Z,89.81
2016-09-30T01:55:42.340Z,89.95
2016-09-30T01:56:42.347Z,90.29
2016-09-30T01:57:42.372Z,89.76
2016-09-30T01:58:42.382Z,89.95
2016-09-30T01:59:42.414Z,89.48
2016-09-30T02:00:42.421Z,89.19
2016-09-30T02:01:42.450Z,89.43
2016-09-30T02:02:42.467Z,90.09
2016-09-30T02:03:42.503Z,90.39
2016-09-30T02:04:42.506Z,89.43
2016-09-30T02:05:42.527Z,89.48
2016-09-30T02:06:42.535Z,89.33
2016-09-30T02:07:42.555Z,89.33
2016-09-30T02:08:42.585Z,89.19
2016-09-30T02:09:42.599Z,89.58
2016-09-30T02:10:42.619Z,89.43
2016-09-30T02:11:42.636Z,88.76
2016-09-30T02:12:42.662Z,89.72
2016-09-30T02:13:42.691Z,89.62
2016-09-30T02:14:42.701Z,89.72
2016-09-30T02:15:42.724Z,89.43
2016-09-30T02:16:42.739Z,89.72
2016-09-30T02:17:42.759Z,89.04
2016-09-30T02:18:42.784Z,89.04
2016-09-30T02:19:42.801Z,89
2016-09-30T02:20:42.819Z,89.14
2016-09-30T02:21:42.839Z,88.81
2016-09-30T02:22:42.864Z,89.09
2016-09-30T02:23:42.877Z,88.71
2016-09-30T02:24:42.909Z,88.85
2016-09-30T02:25:42.919Z,88.85
2016-09-30T02:26:42.943Z,88.95
2016-09-30T02:27:42.954Z,89.14
2016-09-30T02:28:42.983Z,88.37
2016-09-30T02:29:43.009Z,88.09
2016-09-30T02:30:43.021Z,88.28
2016-09-30T02:31:43.041Z,88.04
2016-09-30T02:32:43.388Z,88.23
2016-09-30T02:33:43.072Z,88.47
2016-09-30T02:34:43.099Z,88.47
2016-09-30T02:35:43.125Z,88.23
2016-09-30T02:36:43.141Z,88.33
2016-09-30T02:37:43.161Z,87.66
2016-09-30T02:38:43.181Z,87.61
2016-09-30T02:39:43.200Z,87.41
2016-09-30T02:40:43.218Z,87.41
2016-09-30T02:41:43.235Z,87.37
2016-09-30T02:42:43.265Z,87.23
2016-09-30T02:43:43.307Z,87.23
2016-09-30T02:44:43.297Z,87.08
2016-09-30T02:45:43.322Z,87.56
2016-09-30T02:46:43.345Z,87.47
2016-09-30T02:47:43.365Z,87.18
2016-09-30T02:48:43.374Z,86.61
2016-09-30T02:49:43.403Z,86.51
2016-09-30T02:50:43.417Z,86.9
2016-09-30T02:51:43.434Z,87.76
2016-09-30T02:52:43.457Z,87.18
2016-09-30T02:53:43.492Z,86.41
2016-09-30T02:54:43.497Z,87.08
2016-09-30T02:55:43.519Z,86.61
2016-09-30T02:56:43.535Z,86.7
2016-09-30T02:57:43.557Z,86.7
2016-09-30T02:58:43.571Z,86.99
2016-09-30T02:59:43.615Z,86.51
2016-09-30T03:00:43.623Z,87.27
2016-09-30T03:01:43.639Z,86.61
2016-09-30T03:02:43.654Z,86.99
2016-09-30T03:03:43.674Z,86.7
2016-09-30T03:04:43.704Z,86.8
2016-09-30T03:05:43.711Z,86.7
2016-09-30T03:06:43.746Z,87.18
2016-09-30T03:07:43.754Z,87.27
2016-09-30T03:08:43.777Z,86.7
2016-09-30T03:09:43.796Z,86.99
2016-09-30T03:10:43.827Z,86.51
2016-09-30T03:11:43.835Z,86.41
2016-09-30T03:12:43.848Z,86.51
2016-09-30T03:13:43.881Z,86.7
2016-09-30T03:14:43.892Z,86.32
2016-09-30T03:15:43.922Z,86.74
2016-09-30T03:16:43.928Z,85.98
2016-09-30T03:17:43.969Z,86.7
2016-09-30T03:18:43.973Z,86.51
2016-09-30T03:19:44.000Z,86.61
2016-09-30T03:20:44.023Z,85.94
2016-09-30T03:21:44.041Z,86.32
2016-09-30T03:22:44.064Z,85.75
2016-09-30T03:23:44.074Z,85.75
2016-09-30T03:24:44.103Z,85.84
2016-09-30T03:25:44.116Z,85.94
2016-09-30T03:26:44.127Z,86.13
2016-09-30T03:27:44.171Z,85.84
2016-09-30T03:28:44.165Z,85.65
2016-09-30T03:29:44.199Z,85.17
2016-09-30T03:30:44.215Z,85.65
2016-09-30T03:31:44.237Z,85.46
2016-09-30T03:32:44.250Z,85.46
2016-09-30T03:33:44.271Z,85.27
2016-09-30T03:34:44.296Z,85.27
2016-09-30T03:35:44.316Z,85.65
2016-09-30T03:36:44.328Z,85.08
2016-09-30T03:37:44.353Z,85.27
2016-09-30T03:38:44.363Z,85.27
2016-09-30T03:39:44.407Z,85.36
2016-09-30T03:40:44.404Z,85.27
2016-09-30T03:41:44.449Z,85.36
2016-09-30T03:42:44.456Z,84.59
2016-09-30T03:43:44.467Z,85.02
2016-09-30T03:44:44.485Z,84.31
2016-09-30T03:45:44.509Z,84.79
2016-09-30T03:46:44.527Z,84.79
2016-09-30T03:47:44.553Z,84.31
2016-09-30T03:48:44.570Z,84.16
2016-09-30T03:49:44.594Z,84.31
2016-09-30T03:50:44.613Z,84.16
2016-09-30T03:51:44.628Z,83.97
2016-09-30T03:52:44.649Z,83.87
2016-09-30T03:53:44.687Z,83.97
2016-09-30T03:54:44.682Z,83.87
2016-09-30T03:55:44.707Z,84.12
2016-09-30T03:56:44.734Z,83.54
2016-09-30T03:57:44.749Z,84.12
2016-09-30T03:58:44.771Z,83.83
2016-09-30T03:59:44.789Z,83.2
2016-09-30T04:01:44.838Z,83.87
2016-09-30T04:02:44.859Z,83.83
2016-09-30T04:03:44.879Z,83.68
2016-09-30T04:04:44.899Z,83.87
2016-09-30T04:05:44.920Z,83.83
2016-09-30T04:06:44.936Z,83.73
2016-09-30T04:07:44.960Z,84.12
2016-09-30T04:08:44.981Z,84.22
2016-09-30T04:09:45.002Z,84.16
2016-09-30T04:10:45.022Z,84.98
2016-09-30T04:11:45.027Z,84.59
2016-09-30T04:12:45.056Z,84.88
2016-09-30T04:13:45.075Z,84.69
2016-09-30T04:14:45.099Z,85.27
2016-09-30T04:15:45.129Z,85.36
2016-09-30T04:16:45.138Z,85.17
2016-09-30T04:17:45.155Z,85.27
2016-09-30T04:18:45.178Z,85.17
2016-09-30T04:19:45.196Z,85.17
2016-09-30T04:20:45.218Z,84.98
2016-09-30T04:21:45.233Z,84.69
2016-09-30T04:22:45.250Z,85.27
2016-09-30T04:23:45.278Z,85.17
2016-09-30T04:24:45.288Z,84.79
2016-09-30T04:25:45.309Z,84.69
2016-09-30T04:26:45.327Z,85.27
2016-09-30T04:27:45.360Z,84.88
2016-09-30T04:28:45.386Z,85.17
2016-09-30T04:29:45.398Z,84.88
2016-09-30T04:30:45.418Z,85.36
2016-09-30T04:31:45.440Z,84.88
2016-09-30T04:32:45.454Z,85.65
2016-09-30T04:33:45.477Z,85.08
2016-09-30T04:34:45.497Z,85.27
2016-09-30T04:35:45.517Z,85.46
2016-09-30T04:36:45.534Z,85.17
2016-09-30T04:37:45.557Z,85.46
2016-09-30T04:38:45.569Z,85.55
2016-09-30T04:39:45.595Z,85.27
2016-09-30T04:40:45.613Z,85.55
2016-09-30T04:41:45.636Z,85.84
2016-09-30T04:42:45.656Z,85.94
2016-09-30T04:43:45.669Z,85.65
2016-09-30T04:44:45.696Z,86.22
2016-09-30T04:45:45.717Z,86.13
2016-09-30T04:46:45.741Z,85.84
2016-09-30T04:47:45.745Z,86.61
2016-09-30T04:48:45.765Z,86.9
2016-09-30T04:49:45.797Z,86.22
2016-09-30T04:50:45.804Z,86.22
2016-09-30T04:51:45.833Z,85.84
2016-09-30T04:52:45.862Z,85.75
2016-09-30T04:53:45.869Z,85.08
2016-09-30T04:54:45.882Z,85.08
2016-09-30T04:55:45.920Z,85.55
2016-09-30T04:56:45.933Z,85.65
2016-09-30T04:57:45.947Z,85.65
2016-09-30T04:58:45.963Z,85.27
2016-09-30T04:59:45.986Z,85.65
2016-09-30T05:00:46.014Z,85.08
2016-09-30T05:01:46.029Z,85.36
2016-09-30T05:02:46.058Z,85.27
2016-09-30T05:03:46.083Z,85.27
2016-09-30T05:04:46.090Z,85.65
2016-09-30T05:05:46.107Z,85.65
2016-09-30T05:06:46.128Z,85.65
2016-09-30T05:07:46.155Z,85.84
2016-09-30T05:08:46.165Z,85.46
2016-09-30T05:09:46.215Z,85.36
2016-09-30T05:10:46.205Z,85.46
2016-09-30T05:11:46.235Z,85.46
2016-09-30T05:12:46.252Z,85.08
2016-09-30T05:13:46.270Z,85.27
2016-09-30T05:14:46.280Z,85.46
2016-09-30T05:15:46.312Z,85.46
2016-09-30T05:16:46.331Z,85.46
2016-09-30T05:17:46.357Z,84.98
2016-09-30T05:18:46.365Z,85.46
2016-09-30T05:19:46.394Z,85.08
2016-09-30T05:20:46.409Z,85.65
2016-09-30T05:21:46.437Z,85.27
2016-09-30T05:22:46.451Z,85.27
2016-09-30T05:23:46.468Z,85.36
2016-09-30T05:24:46.476Z,85.27
2016-09-30T05:25:46.512Z,85.46
2016-09-30T05:26:46.540Z,84.98
2016-09-30T05:27:46.550Z,85.08
2016-09-30T05:28:46.575Z,85.08
2016-09-30T05:29:46.595Z,85.46
2016-09-30T05:30:46.616Z,84.98
2016-09-30T05:31:46.637Z,85.55
2016-09-30T05:32:46.640Z,85.55
2016-09-30T05:33:46.673Z,85.36
2016-09-30T05:34:46.687Z,85.36
2016-09-30T05:35:46.716Z,85.65
2016-09-30T05:36:46.730Z,85.65
2016-09-30T05:37:46.745Z,85.65
2016-09-30T05:38:46.775Z,85.08
2016-09-30T05:39:46.789Z,85.27
2016-09-30T05:40:46.805Z,85.17
2016-09-30T05:41:46.826Z,85.46
2016-09-30T05:42:46.854Z,85.46
2016-09-30T05:43:46.867Z,85.36
2016-09-30T05:44:46.893Z,85.46
2016-09-30T05:45:46.922Z,85.27
2016-09-30T05:46:46.925Z,84.98
2016-09-30T05:47:46.940Z,85.36
2016-09-30T05:48:46.974Z,85.36
2016-09-30T05:49:46.989Z,85.46
2016-09-30T05:50:46.999Z,85.46
2016-09-30T05:51:47.031Z,85.27
2016-09-30T05:52:47.047Z,85.17
2016-09-30T05:53:47.067Z,85.55
2016-09-30T05:54:47.089Z,85.27
2016-09-30T05:55:47.099Z,85.55
2016-09-30T05:56:47.127Z,85.46
2016-09-30T05:57:47.148Z,85.27
2016-09-30T05:58:47.172Z,85.46
2016-09-30T05:59:47.187Z,85.46
2016-09-30T06:00:47.202Z,84.79
2016-09-30T06:01:47.227Z,85.55
2016-09-30T06:02:47.248Z,84.88
2016-09-30T06:03:47.269Z,85.17
2016-09-30T06:04:47.277Z,85.46
2016-09-30T06:05:47.305Z,85.27
2016-09-30T06:06:47.326Z,85.36
2016-09-30T06:07:47.357Z,85.46
2016-09-30T06:08:47.370Z,85.55
2016-09-30T06:09:47.375Z,85.27
2016-09-30T06:10:47.399Z,85.65
2016-09-30T06:11:47.428Z,85.65
2016-09-30T06:12:47.445Z,85.84
2016-09-30T06:13:47.465Z,85.08
2016-09-30T06:14:47.483Z,85.46
2016-09-30T06:15:47.506Z,85.46
2016-09-30T06:16:47.520Z,85.27
2016-09-30T06:17:47.548Z,85.46
2016-09-30T06:18:47.559Z,85.27
2016-09-30T06:19:47.584Z,85.65
2016-09-30T06:20:47.602Z,85.75
2016-09-30T06:21:47.619Z,85.08
2016-09-30T06:22:47.636Z,84.98
2016-09-30T06:23:47.655Z,85.36
2016-09-30T06:24:47.686Z,85.17
2016-09-30T06:25:47.692Z,84.88
2016-09-30T06:26:47.718Z,85.65
2016-09-30T06:27:47.753Z,84.98
2016-09-30T06:28:47.755Z,85.17
2016-09-30T06:29:47.783Z,85.08
2016-09-30T06:30:47.796Z,85.17
2016-09-30T06:31:47.826Z,85.17
2016-09-30T06:32:47.845Z,84.92
2016-09-30T06:33:47.862Z,84.83
2016-09-30T06:34:47.887Z,84.55
2016-09-30T06:35:47.912Z,85.12
2016-09-30T06:36:47.925Z,84.41
2016-09-30T06:37:47.940Z,84.83
2016-09-30T06:38:47.954Z,84.74
2016-09-30T06:39:47.986Z,84.41
2016-09-30T06:40:48.008Z,84.79
2016-09-30T06:41:48.027Z,84.16
2016-09-30T06:42:48.037Z,84.16
2016-09-30T06:43:48.070Z,84.16
2016-09-30T06:44:48.087Z,84.45
2016-09-30T06:45:48.102Z,84.16
2016-09-30T06:46:48.127Z,84.35
2016-09-30T06:47:48.149Z,84.26
2016-09-30T06:48:48.170Z,83.68
2016-09-30T06:49:48.187Z,83.68
2016-09-30T06:50:48.203Z,83.87
2016-09-30T06:51:48.229Z,83.87
2016-09-30T06:52:48.240Z,83.97
2016-09-30T06:53:48.278Z,83.87
2016-09-30T06:54:48.291Z,83.97
2016-09-30T06:55:48.305Z,83.87
2016-09-30T06:56:48.324Z,83.3
2016-09-30T06:57:48.341Z,83.49
2016-09-30T06:58:48.359Z,83.01
2016-09-30T06:59:48.390Z,83.01
2016-09-30T07:00:48.416Z,83.44
2016-09-30T07:01:48.428Z,83.34
2016-09-30T07:02:48.436Z,83.39
2016-09-30T07:03:48.461Z,83.15
2016-09-30T07:04:48.488Z,83.05
2016-09-30T07:05:48.508Z,82.76
2016-09-30T07:06:48.533Z,82.67
2016-09-30T07:07:48.558Z,82.48
2016-09-30T07:08:48.570Z,82.57
2016-09-30T07:09:48.583Z,82.86
2016-09-30T07:10:48.620Z,82.48
2016-09-30T07:11:48.629Z,82.09
2016-09-30T07:12:48.660Z,82.57
2016-09-30T07:13:48.681Z,81.81
2016-09-30T07:14:48.685Z,81.81
2016-09-30T07:15:48.715Z,81.81
2016-09-30T07:16:48.735Z,81.43
2016-09-30T07:17:48.757Z,81.71
2016-09-30T07:18:48.773Z,81.23
2016-09-30T07:19:48.789Z,81.62
2016-09-30T07:20:48.806Z,80.94
2016-09-30T07:21:48.836Z,80.56
2016-09-30T07:22:48.856Z,81.04
2016-09-30T07:23:48.875Z,80.18
2016-09-30T07:24:48.893Z,79.99
2016-09-30T07:25:48.916Z,79.89
2016-09-30T07:26:48.937Z,79.36
2016-09-30T07:27:48.953Z,79.74
2016-09-30T07:28:48.974Z,78.97
2016-09-30T07:29:48.991Z,79.16
2016-09-30T07:30:49.013Z,78.97
2016-09-30T07:31:49.028Z,78.2
2016-09-30T07:32:49.060Z,77.73
2016-09-30T07:33:49.076Z,78.02
2016-09-30T07:34:49.097Z,77.58
2016-09-30T07:35:49.122Z,77.48
2016-09-30T07:36:49.133Z,77.67
2016-09-30T07:37:49.164Z,77.29
2016-09-30T07:38:49.186Z,77.09
2016-09-30T07:39:49.207Z,77.48
2016-09-30T07:40:49.223Z,77.09
2016-09-30T07:41:49.244Z,77.29
2016-09-30T07:42:49.262Z,77.48
2016-09-30T07:43:49.288Z,77.76
2016-09-30T07:44:49.307Z,77.29
2016-09-30T07:45:49.315Z,77.29
2016-09-30T07:46:49.332Z,77.73
2016-09-30T07:47:49.364Z,78.05
2016-09-30T07:48:49.389Z,77.86
2016-09-30T07:49:49.407Z,77.38
2016-09-30T07:50:49.428Z,77.44
2016-09-30T07:51:49.440Z,77.82
2016-09-30T07:52:49.551Z,78.15
2016-09-30T07:53:49.508Z,77.92
2016-09-30T07:54:49.510Z,78.02
2016-09-30T07:55:49.523Z,78.3
2016-09-30T07:56:49.544Z,78.3
2016-09-30T07:57:49.566Z,77.63
2016-09-30T07:58:49.595Z,78.3
2016-09-30T07:59:49.607Z,78.49
2016-09-30T08:00:49.636Z,78.3
2016-09-30T08:01:49.657Z,78.59
2016-09-30T08:02:49.690Z,78.97
2016-09-30T08:03:49.707Z,78.59
2016-09-30T08:04:49.725Z,78.97
2016-09-30T08:05:49.733Z,79.64
2016-09-30T08:06:49.756Z,79.45
2016-09-30T08:07:49.781Z,79.16
2016-09-30T08:08:49.803Z,79.26
2016-09-30T08:09:49.820Z,79.07
2016-09-30T08:10:49.843Z,79.16
2016-09-30T08:11:49.866Z,78.69
2016-09-30T08:12:49.890Z,78.49
2016-09-30T08:13:49.894Z,78.69
2016-09-30T08:14:49.925Z,78.88
2016-09-30T08:15:49.940Z,78.59
2016-09-30T08:16:49.962Z,78.59
2016-09-30T08:17:49.992Z,77.63
2016-09-30T08:18:50.000Z,77.63
2016-09-30T08:19:50.025Z,77.58
2016-09-30T08:20:50.047Z,77.95
2016-09-30T08:21:50.078Z,77.76
2016-09-30T08:22:50.096Z,77.19
2016-09-30T08:23:50.097Z,77.29
2016-09-30T08:24:50.157Z,77.48
2016-09-30T08:25:50.159Z,76.62
2016-09-30T08:26:50.162Z,76.62
2016-09-30T08:27:50.181Z,76.9
2016-09-30T08:28:50.203Z,76.23
2016-09-30T08:29:50.231Z,75.89
2016-09-30T08:30:50.246Z,75.89
2016-09-30T08:31:50.266Z,75.12
2016-09-30T08:32:50.291Z,74.16
2016-09-30T08:33:50.304Z,74.54
2016-09-30T08:34:50.340Z,74.16
2016-09-30T08:35:50.353Z,74.93
2016-09-30T08:36:50.383Z,74.35
2016-09-30T08:37:50.400Z,74.64
2016-09-30T08:38:50.412Z,74.83
2016-09-30T08:39:50.441Z,74.26
2016-09-30T08:40:50.469Z,74.29
2016-09-30T08:41:50.491Z,74.01
2016-09-30T08:42:50.504Z,73.52
2016-09-30T08:43:50.530Z,73.81
2016-09-30T08:44:50.550Z,73.43
2016-09-30T08:45:50.566Z,73.52
2016-09-30T08:46:50.582Z,72.75
2016-09-30T08:47:50.604Z,72.95
2016-09-30T08:48:50.632Z,73.43
2016-09-30T08:49:50.655Z,73.43
2016-09-30T08:50:50.676Z,73.52
2016-09-30T08:51:50.694Z,73.24
2016-09-30T08:52:50.708Z,73.81
2016-09-30T08:53:50.752Z,73.43
2016-09-30T08:54:50.756Z,73.04
2016-09-30T08:55:50.774Z,72.95
2016-09-30T08:56:50.797Z,73.24
2016-09-30T08:57:50.823Z,72.47
2016-09-30T08:58:50.835Z,72.41
2016-09-30T08:59:50.858Z,72.47
2016-09-30T09:00:50.879Z,72.47
2016-09-30T09:01:50.901Z,71.98
2016-09-30T09:02:50.941Z,72.66
2016-09-30T09:03:50.954Z,71.89
2016-09-30T09:04:50.972Z,71.7
2016-09-30T09:05:50.997Z,71.31
2016-09-30T09:06:51.009Z,71.51
2016-09-30T09:07:51.039Z,71.41
2016-09-30T09:08:51.392Z,71.03
2016-09-30T09:09:51.072Z,71.12
2016-09-30T09:10:51.105Z,70.93
2016-09-30T09:11:51.129Z,70.84
2016-09-30T09:12:51.138Z,70.93
2016-09-30T09:13:51.171Z,70.64
2016-09-30T09:14:51.177Z,70.55
2016-09-30T09:15:51.228Z,70.07
2016-09-30T09:16:51.237Z,70.45
2016-09-30T09:17:51.241Z,70.17
2016-09-30T09:18:51.274Z,70.07
2016-09-30T09:19:51.295Z,70.36
2016-09-30T09:20:51.317Z,69.78
2016-09-30T09:21:51.330Z,70.07
2016-09-30T09:22:51.351Z,70.36
2016-09-30T09:23:51.392Z,70.55
2016-09-30T09:24:51.404Z,70.45
2016-09-30T09:25:51.437Z,70.64
2016-09-30T09:26:51.439Z,70.64
2016-09-30T09:27:51.464Z,70.26
2016-09-30T09:28:51.475Z,70.07
2016-09-30T09:29:51.513Z,69.78
2016-09-30T09:30:51.528Z,69.59
2016-09-30T09:31:51.542Z,69.05
2016-09-30T09:32:51.576Z,68.63
2016-09-30T09:33:51.592Z,68.34
2016-09-30T09:34:51.613Z,68.34
2016-09-30T09:35:51.635Z,68.73
2016-09-30T09:36:51.653Z,68.37
2016-09-30T09:37:51.683Z,67.9
2016-09-30T09:38:51.700Z,68.18
2016-09-30T09:39:51.726Z,67.9
2016-09-30T09:40:51.736Z,67.61
2016-09-30T09:41:51.765Z,67.13
2016-09-30T09:42:51.784Z,67.03
2016-09-30T09:43:51.805Z,67.22
2016-09-30T09:44:51.825Z,67.22
2016-09-30T09:45:51.844Z,67.32
2016-09-30T09:46:51.870Z,67.61
2016-09-30T09:47:51.889Z,67.51
2016-09-30T09:48:51.911Z,67.22
2016-09-30T09:49:51.935Z,67.32
2016-09-30T09:50:51.959Z,66.77
2016-09-30T09:51:51.990Z,66.49
2016-09-30T09:52:51.997Z,66.2
2016-09-30T09:53:52.027Z,65.91
2016-09-30T09:54:52.048Z,65.72
2016-09-30T09:55:52.082Z,66
2016-09-30T09:56:52.085Z,65.62
2016-09-30T09:57:52.110Z,64.85
2016-09-30T09:58:52.133Z,64.66
2016-09-30T09:59:52.152Z,65.23
2016-09-30T10:00:52.172Z,65.33
2016-09-30T10:01:52.194Z,65.23
2016-09-30T10:02:52.225Z,65.53
2016-09-30T10:03:52.237Z,65.53
2016-09-30T10:04:52.266Z,65.91
2016-09-30T10:05:52.290Z,66.3
2016-09-30T10:06:52.309Z,66.2
2016-09-30T10:07:52.333Z,66.1
2016-09-30T10:08:52.347Z,66
2016-09-30T10:09:52.373Z,66.2
2016-09-30T10:10:52.386Z,65.91
2016-09-30T10:11:52.418Z,65.91
2016-09-30T10:12:52.437Z,65.53
2016-09-30T10:13:52.459Z,65.33
2016-09-30T10:14:52.478Z,65.17
2016-09-30T10:15:52.504Z,64.89
2016-09-30T10:16:52.527Z,64.22
2016-09-30T10:17:52.540Z,64.12
2016-09-30T10:18:52.573Z,63.15
2016-09-30T10:19:52.586Z,62.87
2016-09-30T10:20:52.620Z,63.06
2016-09-30T10:21:52.635Z,61.81
2016-09-30T10:22:52.656Z,61.61
2016-09-30T10:23:52.675Z,61.14
2016-09-30T10:24:52.709Z,60.75
2016-09-30T10:25:52.715Z,60.56
2016-09-30T10:26:52.741Z,60.46
2016-09-30T10:27:52.760Z,60.46
2016-09-30T10:28:52.789Z,60.27
2016-09-30T10:29:52.820Z,60.17
2016-09-30T10:30:52.831Z,58.83
2016-09-30T10:31:52.855Z,59.5
2016-09-30T10:32:52.878Z,59.41
2016-09-30T10:33:52.905Z,59.12
2016-09-30T10:34:52.909Z,60.08
2016-09-30T10:35:52.944Z,59.34
2016-09-30T10:36:52.960Z,58.86
2016-09-30T10:37:52.991Z,58.95
2016-09-30T10:38:53.011Z,58.76
2016-09-30T10:39:53.031Z,58.95
2016-09-30T10:40:53.054Z,59.24
2016-09-30T10:41:53.083Z,58.6
2016-09-30T10:42:53.098Z,58.09
2016-09-30T10:43:53.125Z,57.42
2016-09-30T10:44:53.138Z,57.42
2016-09-30T10:45:53.182Z,58.09
2016-09-30T10:46:53.177Z,58.57
2016-09-30T10:47:53.207Z,58.95
2016-09-30T10:48:53.234Z,58.57
2016-09-30T10:49:53.257Z,58.7
2016-09-30T10:50:53.273Z,57.83
2016-09-30T10:51:53.304Z,56.67
2016-09-30T10:52:53.314Z,56.77
2016-09-30T10:53:53.338Z,56.58
2016-09-30T10:54:53.366Z,56.58
2016-09-30T10:55:53.385Z,56
2016-09-30T10:56:53.417Z,55.9
2016-09-30T10:57:53.427Z,56.1
2016-09-30T10:58:53.452Z,56.29
2016-09-30T10:59:53.487Z,56.77
2016-09-30T11:00:53.494Z,57.64
2016-09-30T11:01:53.519Z,56.38
2016-09-30T11:02:53.544Z,55.9
2016-09-30T11:03:53.569Z,56.77
2016-09-30T11:04:53.589Z,56.87
2016-09-30T11:05:53.600Z,56.77
2016-09-30T11:06:53.634Z,57.54
2016-09-30T11:07:53.655Z,57.51
2016-09-30T11:08:53.671Z,57.35
2016-09-30T11:09:53.709Z,57.73
2016-09-30T11:10:53.722Z,57.54
2016-09-30T11:11:53.744Z,57.99
2016-09-30T11:12:53.767Z,58.76
2016-09-30T11:13:53.795Z,59.15
2016-09-30T11:14:53.810Z,58.37
2016-09-30T11:15:53.841Z,58.6
2016-09-30T11:16:53.864Z,57.9
2016-09-30T11:17:53.875Z,57.73
2016-09-30T11:18:53.906Z,56.96
2016-09-30T11:19:53.926Z,57.06
2016-09-30T11:20:53.951Z,56.48
2016-09-30T11:21:53.966Z,56.6
2016-09-30T11:22:53.989Z,56.51
2016-09-30T11:23:54.023Z,56.51
2016-09-30T11:24:54.037Z,56.12
2016-09-30T11:25:54.064Z,56.32
2016-09-30T11:26:54.080Z,55.45
2016-09-30T11:27:54.110Z,55.65
2016-09-30T11:28:54.130Z,55.74
2016-09-30T11:29:54.142Z,55.81
2016-09-30T11:30:54.180Z,56.38
2016-09-30T11:31:54.200Z,57.32
2016-09-30T11:32:54.219Z,57.8
2016-09-30T11:33:54.238Z,57.92
2016-09-30T11:34:54.257Z,57.51
2016-09-30T11:35:54.273Z,57.7
2016-09-30T11:36:54.300Z,58.02
2016-09-30T11:37:54.328Z,58.12
2016-09-30T11:38:54.355Z,57.64
2016-09-30T11:39:54.375Z,57.64
2016-09-30T11:40:54.399Z,58.22
2016-09-30T11:41:54.425Z,58.6
2016-09-30T11:42:54.433Z,58.18
2016-09-30T11:43:54.464Z,58.12
2016-09-30T11:44:54.483Z,58.02
2016-09-30T11:45:54.509Z,58.31
2016-09-30T11:46:54.534Z,57.73
2016-09-30T11:47:54.565Z,57.25
2016-09-30T11:48:54.564Z,57.54
2016-09-30T11:49:54.592Z,57.83
2016-09-30T11:50:54.619Z,57.83
2016-09-30T11:51:54.648Z,57.35
2016-09-30T11:52:54.654Z,57.25
2016-09-30T11:53:54.697Z,57.15
2016-09-30T11:54:54.698Z,57.64
2016-09-30T11:55:54.727Z,58.12
2016-09-30T11:56:54.758Z,57.73
2016-09-30T11:57:54.777Z,56.1
2016-09-30T11:58:54.803Z,57.06
2016-09-30T11:59:54.827Z,57.35
2016-09-30T12:00:54.851Z,58.4
2016-09-30T12:01:54.857Z,58.4
2016-09-30T12:02:54.885Z,58.12
2016-09-30T12:03:54.905Z,56.96
2016-09-30T12:04:54.932Z,57.25
2016-09-30T12:05:54.962Z,56.96
2016-09-30T12:06:54.981Z,56.38
2016-09-30T12:07:55.009Z,55.93
2016-09-30T12:08:55.024Z,55.93
2016-09-30T12:09:55.041Z,56.32
2016-09-30T12:10:55.062Z,56.12
2016-09-30T12:11:55.085Z,56.32
2016-09-30T12:12:55.120Z,56.29
2016-09-30T12:13:55.151Z,57.73
2016-09-30T12:14:55.156Z,57.25
2016-09-30T12:15:55.188Z,56.58
2016-09-30T12:16:55.199Z,56.67
2016-09-30T12:17:55.232Z,56.96
2016-09-30T12:18:55.253Z,56.1
2016-09-30T12:19:55.282Z,56.67
2016-09-30T12:20:55.287Z,56.38
2016-09-30T12:21:55.307Z,56.65
2016-09-30T12:22:55.334Z,57.15
2016-09-30T12:23:55.357Z,57.32
2016-09-30T12:24:55.386Z,56.96
2016-09-30T12:25:55.418Z,56.87
2016-09-30T12:26:55.423Z,57.9
2016-09-30T12:27:55.455Z,57.64
2016-09-30T12:28:55.474Z,57.15
2016-09-30T12:29:55.497Z,57.06
2016-09-30T12:30:55.523Z,57.25
2016-09-30T12:31:55.548Z,57.15
2016-09-30T12:32:55.552Z,56.96
2016-09-30T12:33:55.584Z,56
2016-09-30T12:34:55.605Z,56.1
2016-09-30T12:35:55.620Z,56.96
2016-09-30T12:36:55.655Z,57.06
2016-09-30T12:37:55.663Z,56.96
2016-09-30T12:38:55.707Z,56.87
2016-09-30T12:39:55.729Z,57.54
2016-09-30T12:40:55.739Z,56.77
2016-09-30T12:41:55.767Z,56.96
2016-09-30T12:42:55.786Z,57.6
2016-09-30T12:43:55.807Z,57.8
2016-09-30T12:44:55.831Z,57.42
2016-09-30T12:45:55.848Z,57.6
2016-09-30T12:46:55.879Z,57.6
2016-09-30T12:47:55.891Z,57.32
2016-09-30T12:48:55.916Z,57.51
2016-09-30T12:49:55.938Z,57.45
2016-09-30T12:50:55.972Z,57.64
2016-09-30T12:51:55.988Z,57.64
2016-09-30T12:52:56.011Z,57.64
2016-09-30T12:53:56.046Z,57.06
2016-09-30T12:54:56.071Z,56.58
2016-09-30T12:55:56.071Z,56.96
2016-09-30T12:56:56.090Z,56.1